sensor_id;sensor_type;location;lat;lon;timestamp;P1;durP1;ratioP1;P2;durP2;ratioP2
22030;SDS011;11179;52.106;21.024;2022-12-07T00:00:28;67.07;;;30.80;;
22030;SDS011;11179;52.106;21.024;2022-12-07T00:02:53;64.80;;;26.90;;
22030;SDS011;11179;52.106;21.024;2022-12-07T00:05:18;53.07;;;27.03;;
22030;SDS011;11179;52.106;21.024;2022-12-07T00:07:44;63.83;;;28.70;;
22030;SDS011;11179;52.106;21.024;2022-12-07T00:10:09;55.60;;;26.83;;
22030;SDS011;11179;52.106;21.024;2022-12-07T00:12:35;58.80;;;28.13;;
22030;SDS011;11179;52.106;21.024;2022-12-07T00:15:00;47.37;;;23.77;;
22030;SDS011;11179;52.106;21.024;2022-12-07T00:17:25;49.23;;;23.50;;
22030;SDS011;11179;52.106;21.024;2022-12-07T00:19:51;47.23;;;25.00;;
22030;SDS011;11179;52.106;21.024;2022-12-07T00:22:16;56.80;;;28.03;;
22030;SDS011;11179;52.106;21.024;2022-12-07T00:24:41;50.73;;;24.77;;
22030;SDS011;11179;52.106;21.024;2022-12-07T00:27:07;64.07;;;28.00;;
22030;SDS011;11179;52.106;21.024;2022-12-07T00:29:32;58.43;;;27.93;;
22030;SDS011;11179;52.106;21.024;2022-12-07T00:31:57;55.47;;;25.90;;
22030;SDS011;11179;52.106;21.024;2022-12-07T00:34:22;48.87;;;22.80;;
22030;SDS011;11179;52.106;21.024;2022-12-07T00:36:48;59.60;;;26.57;;
22030;SDS011;11179;52.106;21.024;2022-12-07T00:39:14;57.37;;;25.40;;
22030;SDS011;11179;52.106;21.024;2022-12-07T00:41:40;55.87;;;25.90;;
22030;SDS011;11179;52.106;21.024;2022-12-07T00:44:05;50.30;;;24.17;;
22030;SDS011;11179;52.106;21.024;2022-12-07T00:46:31;55.03;;;24.60;;
22030;SDS011;11179;52.106;21.024;2022-12-07T00:48:56;48.50;;;22.87;;
22030;SDS011;11179;52.106;21.024;2022-12-07T00:51:22;47.73;;;22.37;;
22030;SDS011;11179;52.106;21.024;2022-12-07T00:53:48;52.03;;;26.50;;
22030;SDS011;11179;52.106;21.024;2022-12-07T00:56:15;54.80;;;24.43;;
22030;SDS011;11179;52.106;21.024;2022-12-07T00:58:42;56.27;;;24.80;;
22030;SDS011;11179;52.106;21.024;2022-12-07T01:01:08;52.00;;;25.83;;
22030;SDS011;11179;52.106;21.024;2022-12-07T01:03:36;52.87;;;24.47;;
22030;SDS011;11179;52.106;21.024;2022-12-07T01:06:02;49.77;;;22.50;;
22030;SDS011;11179;52.106;21.024;2022-12-07T01:08:28;53.17;;;22.80;;
22030;SDS011;11179;52.106;21.024;2022-12-07T01:10:58;50.23;;;23.77;;
22030;SDS011;11179;52.106;21.024;2022-12-07T01:13:28;50.23;;;23.60;;
22030;SDS011;11179;52.106;21.024;2022-12-07T01:15:56;46.80;;;20.50;;
22030;SDS011;11179;52.106;21.024;2022-12-07T01:18:24;40.42;;;21.13;;
22030;SDS011;11179;52.106;21.024;2022-12-07T01:21:24;49.90;;;21.50;;
22030;SDS011;11179;52.106;21.024;2022-12-07T01:23:43;49.28;;;22.48;;
22030;SDS011;11179;52.106;21.024;2022-12-07T01:26:10;40.80;;;19.53;;
22030;SDS011;11179;52.106;21.024;2022-12-07T01:28:37;40.00;;;17.03;;
22030;SDS011;11179;52.106;21.024;2022-12-07T01:31:06;41.73;;;19.40;;
22030;SDS011;11179;52.106;21.024;2022-12-07T01:33:37;39.85;;;17.15;;
22030;SDS011;11179;52.106;21.024;2022-12-07T01:36:04;43.40;;;16.40;;
22030;SDS011;11179;52.106;21.024;2022-12-07T01:38:30;40.10;;;17.07;;
22030;SDS011;11179;52.106;21.024;2022-12-07T01:40:57;34.73;;;15.60;;
22030;SDS011;11179;52.106;21.024;2022-12-07T01:43:23;38.13;;;17.93;;
22030;SDS011;11179;52.106;21.024;2022-12-07T01:45:50;33.23;;;16.20;;
22030;SDS011;11179;52.106;21.024;2022-12-07T01:48:16;33.23;;;15.70;;
22030;SDS011;11179;52.106;21.024;2022-12-07T01:50:46;29.43;;;14.87;;
22030;SDS011;11179;52.106;21.024;2022-12-07T01:53:15;30.87;;;16.47;;
22030;SDS011;11179;52.106;21.024;2022-12-07T01:55:44;34.40;;;15.30;;
22030;SDS011;11179;52.106;21.024;2022-12-07T01:58:10;28.80;;;14.47;;
22030;SDS011;11179;52.106;21.024;2022-12-07T02:00:37;30.25;;;14.15;;
22030;SDS011;11179;52.106;21.024;2022-12-07T02:03:05;27.60;;;14.50;;
22030;SDS011;11179;52.106;21.024;2022-12-07T02:05:35;28.10;;;13.60;;
22030;SDS011;11179;52.106;21.024;2022-12-07T02:08:05;29.03;;;13.67;;
22030;SDS011;11179;52.106;21.024;2022-12-07T02:10:31;24.67;;;12.90;;
22030;SDS011;11179;52.106;21.024;2022-12-07T02:13:04;25.80;;;12.70;;
22030;SDS011;11179;52.106;21.024;2022-12-07T02:18:23;25.90;;;11.17;;
22030;SDS011;11179;52.106;21.024;2022-12-07T02:21:00;24.92;;;11.63;;
22030;SDS011;11179;52.106;21.024;2022-12-07T02:31:34;19.70;;;10.37;;
22030;SDS011;11179;52.106;21.024;2022-12-07T02:34:05;24.75;;;12.82;;
22030;SDS011;11179;52.106;21.024;2022-12-07T02:36:39;23.65;;;11.20;;
22030;SDS011;11179;52.106;21.024;2022-12-07T02:39:11;24.67;;;11.37;;
22030;SDS011;11179;52.106;21.024;2022-12-07T02:41:43;24.50;;;12.23;;
22030;SDS011;11179;52.106;21.024;2022-12-07T02:44:16;25.87;;;11.63;;
22030;SDS011;11179;52.106;21.024;2022-12-07T02:46:47;26.07;;;11.53;;
22030;SDS011;11179;52.106;21.024;2022-12-07T02:49:17;18.00;;;9.37;;
22030;SDS011;11179;52.106;21.024;2022-12-07T02:51:44;25.30;;;10.53;;
22030;SDS011;11179;52.106;21.024;2022-12-07T02:54:11;20.13;;;9.83;;
22030;SDS011;11179;52.106;21.024;2022-12-07T02:56:46;17.97;;;9.90;;
22030;SDS011;11179;52.106;21.024;2022-12-07T02:59:17;17.77;;;9.70;;
22030;SDS011;11179;52.106;21.024;2022-12-07T03:10:12;20.50;;;9.23;;
22030;SDS011;11179;52.106;21.024;2022-12-07T03:12:45;16.60;;;8.40;;
22030;SDS011;11179;52.106;21.024;2022-12-07T03:15:25;14.93;;;7.50;;
22030;SDS011;11179;52.106;21.024;2022-12-07T03:17:56;15.67;;;7.97;;
22030;SDS011;11179;52.106;21.024;2022-12-07T03:20:25;16.10;;;8.00;;
22030;SDS011;11179;52.106;21.024;2022-12-07T03:22:52;17.13;;;8.33;;
22030;SDS011;11179;52.106;21.024;2022-12-07T03:25:19;15.23;;;8.00;;
22030;SDS011;11179;52.106;21.024;2022-12-07T03:27:58;14.50;;;7.63;;
22030;SDS011;11179;52.106;21.024;2022-12-07T03:30:33;14.43;;;6.55;;
22030;SDS011;11179;52.106;21.024;2022-12-07T03:33:14;11.25;;;6.30;;
22030;SDS011;11179;52.106;21.024;2022-12-07T03:35:50;11.02;;;6.30;;
22030;SDS011;11179;52.106;21.024;2022-12-07T03:41:01;12.00;;;6.50;;
22030;SDS011;11179;52.106;21.024;2022-12-07T03:43:42;9.23;;;5.60;;
22030;SDS011;11179;52.106;21.024;2022-12-07T03:48:56;10.63;;;5.80;;
22030;SDS011;11179;52.106;21.024;2022-12-07T03:54:27;12.63;;;7.07;;
22030;SDS011;11179;52.106;21.024;2022-12-07T03:56:56;10.77;;;5.95;;
22030;SDS011;11179;52.106;21.024;2022-12-07T03:59:23;10.32;;;6.40;;
22030;SDS011;11179;52.106;21.024;2022-12-07T04:01:54;9.77;;;5.60;;
22030;SDS011;11179;52.106;21.024;2022-12-07T04:04:23;13.23;;;6.20;;
22030;SDS011;11179;52.106;21.024;2022-12-07T04:06:49;12.82;;;6.63;;
22030;SDS011;11179;52.106;21.024;2022-12-07T04:09:15;11.00;;;5.50;;
22030;SDS011;11179;52.106;21.024;2022-12-07T04:17:55;11.37;;;6.00;;
22030;SDS011;11179;52.106;21.024;2022-12-07T04:20:20;10.93;;;6.30;;
22030;SDS011;11179;52.106;21.024;2022-12-07T04:22:46;13.83;;;6.83;;
22030;SDS011;11179;52.106;21.024;2022-12-07T04:25:11;17.20;;;7.83;;
22030;SDS011;11179;52.106;21.024;2022-12-07T04:27:37;13.70;;;7.70;;
22030;SDS011;11179;52.106;21.024;2022-12-07T04:30:02;13.77;;;7.63;;
22030;SDS011;11179;52.106;21.024;2022-12-07T04:32:28;14.00;;;6.80;;
22030;SDS011;11179;52.106;21.024;2022-12-07T04:34:53;17.00;;;7.90;;
22030;SDS011;11179;52.106;21.024;2022-12-07T04:37:19;16.77;;;9.20;;
22030;SDS011;11179;52.106;21.024;2022-12-07T04:39:44;17.80;;;9.43;;
22030;SDS011;11179;52.106;21.024;2022-12-07T04:42:09;21.50;;;10.50;;
22030;SDS011;11179;52.106;21.024;2022-12-07T04:44:35;17.43;;;8.97;;
22030;SDS011;11179;52.106;21.024;2022-12-07T04:47:01;17.70;;;9.70;;
22030;SDS011;11179;52.106;21.024;2022-12-07T04:49:26;18.67;;;9.70;;
22030;SDS011;11179;52.106;21.024;2022-12-07T04:51:52;24.23;;;11.10;;
22030;SDS011;11179;52.106;21.024;2022-12-07T04:54:17;20.60;;;10.57;;
22030;SDS011;11179;52.106;21.024;2022-12-07T04:56:43;14.73;;;8.80;;
22030;SDS011;11179;52.106;21.024;2022-12-07T04:59:09;17.50;;;8.73;;
22030;SDS011;11179;52.106;21.024;2022-12-07T05:01:36;15.80;;;8.70;;
22030;SDS011;11179;52.106;21.024;2022-12-07T05:04:01;18.00;;;8.70;;
22030;SDS011;11179;52.106;21.024;2022-12-07T05:06:27;16.43;;;8.97;;
22030;SDS011;11179;52.106;21.024;2022-12-07T05:08:53;13.93;;;8.33;;
22030;SDS011;11179;52.106;21.024;2022-12-07T05:11:18;15.87;;;8.13;;
22030;SDS011;11179;52.106;21.024;2022-12-07T05:14:03;13.90;;;8.13;;
22030;SDS011;11179;52.106;21.024;2022-12-07T05:16:31;17.43;;;8.17;;
22030;SDS011;11179;52.106;21.024;2022-12-07T05:18:56;15.77;;;8.20;;
22030;SDS011;11179;52.106;21.024;2022-12-07T05:21:22;17.00;;;8.37;;
22030;SDS011;11179;52.106;21.024;2022-12-07T05:23:47;17.60;;;9.00;;
22030;SDS011;11179;52.106;21.024;2022-12-07T05:26:13;20.40;;;9.33;;
22030;SDS011;11179;52.106;21.024;2022-12-07T05:28:38;18.53;;;9.37;;
22030;SDS011;11179;52.106;21.024;2022-12-07T05:31:04;18.80;;;9.23;;
22030;SDS011;11179;52.106;21.024;2022-12-07T05:33:29;13.07;;;8.10;;
22030;SDS011;11179;52.106;21.024;2022-12-07T05:35:54;18.27;;;8.97;;
22030;SDS011;11179;52.106;21.024;2022-12-07T05:38:20;17.33;;;9.07;;
22030;SDS011;11179;52.106;21.024;2022-12-07T05:40:45;18.50;;;9.83;;
22030;SDS011;11179;52.106;21.024;2022-12-07T05:43:10;19.57;;;10.00;;
22030;SDS011;11179;52.106;21.024;2022-12-07T05:45:36;17.83;;;8.57;;
22030;SDS011;11179;52.106;21.024;2022-12-07T05:48:01;16.90;;;8.83;;
22030;SDS011;11179;52.106;21.024;2022-12-07T05:50:27;17.50;;;9.80;;
22030;SDS011;11179;52.106;21.024;2022-12-07T05:52:53;20.43;;;10.40;;
22030;SDS011;11179;52.106;21.024;2022-12-07T05:55:18;14.87;;;9.07;;
22030;SDS011;11179;52.106;21.024;2022-12-07T05:57:44;21.83;;;10.40;;
22030;SDS011;11179;52.106;21.024;2022-12-07T06:00:29;20.23;;;10.13;;
22030;SDS011;11179;52.106;21.024;2022-12-07T06:02:55;20.00;;;9.80;;
22030;SDS011;11179;52.106;21.024;2022-12-07T06:05:20;18.07;;;9.70;;
22030;SDS011;11179;52.106;21.024;2022-12-07T06:07:45;20.50;;;9.47;;
22030;SDS011;11179;52.106;21.024;2022-12-07T06:10:11;22.37;;;9.70;;
22030;SDS011;11179;52.106;21.024;2022-12-07T06:12:36;17.20;;;9.13;;
22030;SDS011;11179;52.106;21.024;2022-12-07T06:15:04;18.75;;;9.20;;
22030;SDS011;11179;52.106;21.024;2022-12-07T06:17:30;21.85;;;10.75;;
22030;SDS011;11179;52.106;21.024;2022-12-07T06:19:55;17.60;;;8.80;;
22030;SDS011;11179;52.106;21.024;2022-12-07T06:22:21;17.00;;;8.50;;
22030;SDS011;11179;52.106;21.024;2022-12-07T06:24:46;18.67;;;9.27;;
22030;SDS011;11179;52.106;21.024;2022-12-07T06:27:12;17.17;;;8.77;;
22030;SDS011;11179;52.106;21.024;2022-12-07T06:29:37;17.17;;;9.40;;
22030;SDS011;11179;52.106;21.024;2022-12-07T06:32:03;23.23;;;10.10;;
22030;SDS011;11179;52.106;21.024;2022-12-07T06:34:29;21.98;;;10.48;;
22030;SDS011;11179;52.106;21.024;2022-12-07T06:36:55;17.30;;;8.70;;
22030;SDS011;11179;52.106;21.024;2022-12-07T06:39:21;17.63;;;9.53;;
22030;SDS011;11179;52.106;21.024;2022-12-07T06:41:48;18.52;;;9.40;;
22030;SDS011;11179;52.106;21.024;2022-12-07T06:44:14;18.70;;;9.45;;
22030;SDS011;11179;52.106;21.024;2022-12-07T06:46:40;18.80;;;9.20;;
22030;SDS011;11179;52.106;21.024;2022-12-07T06:49:05;21.17;;;10.20;;
22030;SDS011;11179;52.106;21.024;2022-12-07T06:51:31;15.85;;;8.35;;
22030;SDS011;11179;52.106;21.024;2022-12-07T06:53:58;17.35;;;8.68;;
22030;SDS011;11179;52.106;21.024;2022-12-07T06:56:23;19.63;;;9.27;;
22030;SDS011;11179;52.106;21.024;2022-12-07T06:58:49;19.67;;;9.73;;
22030;SDS011;11179;52.106;21.024;2022-12-07T07:01:16;19.07;;;10.20;;
22030;SDS011;11179;52.106;21.024;2022-12-07T07:03:42;24.33;;;10.80;;
22030;SDS011;11179;52.106;21.024;2022-12-07T07:06:09;19.45;;;9.95;;
22030;SDS011;11179;52.106;21.024;2022-12-07T07:08:35;25.10;;;10.63;;
22030;SDS011;11179;52.106;21.024;2022-12-07T07:11:01;19.58;;;10.48;;
22030;SDS011;11179;52.106;21.024;2022-12-07T07:13:27;21.30;;;10.70;;
22030;SDS011;11179;52.106;21.024;2022-12-07T07:15:52;20.20;;;9.93;;
22030;SDS011;11179;52.106;21.024;2022-12-07T07:18:18;22.13;;;11.10;;
22030;SDS011;11179;52.106;21.024;2022-12-07T07:20:43;20.37;;;10.00;;
22030;SDS011;11179;52.106;21.024;2022-12-07T07:23:09;22.80;;;10.00;;
22030;SDS011;11179;52.106;21.024;2022-12-07T07:25:34;20.93;;;9.13;;
22030;SDS011;11179;52.106;21.024;2022-12-07T07:28:00;21.37;;;10.27;;
22030;SDS011;11179;52.106;21.024;2022-12-07T07:30:26;20.40;;;10.50;;
22030;SDS011;11179;52.106;21.024;2022-12-07T07:32:55;20.57;;;9.60;;
22030;SDS011;11179;52.106;21.024;2022-12-07T07:35:22;20.87;;;9.90;;
22030;SDS011;11179;52.106;21.024;2022-12-07T07:37:47;20.37;;;9.27;;
22030;SDS011;11179;52.106;21.024;2022-12-07T07:40:13;16.60;;;9.07;;
22030;SDS011;11179;52.106;21.024;2022-12-07T07:42:38;22.33;;;9.60;;
22030;SDS011;11179;52.106;21.024;2022-12-07T07:45:04;16.50;;;8.90;;
22030;SDS011;11179;52.106;21.024;2022-12-07T07:47:29;16.60;;;8.57;;
22030;SDS011;11179;52.106;21.024;2022-12-07T07:49:55;17.10;;;9.07;;
22030;SDS011;11179;52.106;21.024;2022-12-07T07:52:20;20.73;;;8.17;;
22030;SDS011;11179;52.106;21.024;2022-12-07T07:54:45;17.17;;;8.37;;
22030;SDS011;11179;52.106;21.024;2022-12-07T07:57:11;20.17;;;9.27;;
22030;SDS011;11179;52.106;21.024;2022-12-07T07:59:36;20.93;;;10.60;;
22030;SDS011;11179;52.106;21.024;2022-12-07T08:02:01;18.53;;;10.07;;
22030;SDS011;11179;52.106;21.024;2022-12-07T08:04:27;19.33;;;10.70;;
22030;SDS011;11179;52.106;21.024;2022-12-07T08:06:52;18.10;;;9.40;;
22030;SDS011;11179;52.106;21.024;2022-12-07T08:09:17;18.83;;;8.83;;
22030;SDS011;11179;52.106;21.024;2022-12-07T08:11:43;15.40;;;8.37;;
22030;SDS011;11179;52.106;21.024;2022-12-07T08:14:09;18.30;;;8.53;;
22030;SDS011;11179;52.106;21.024;2022-12-07T08:16:35;14.05;;;7.53;;
22030;SDS011;11179;52.106;21.024;2022-12-07T08:19:00;18.77;;;8.00;;
22030;SDS011;11179;52.106;21.024;2022-12-07T08:21:26;19.03;;;8.93;;
22030;SDS011;11179;52.106;21.024;2022-12-07T08:23:51;17.63;;;8.33;;
22030;SDS011;11179;52.106;21.024;2022-12-07T08:26:16;20.07;;;8.80;;
22030;SDS011;11179;52.106;21.024;2022-12-07T08:28:42;25.97;;;9.40;;
22030;SDS011;11179;52.106;21.024;2022-12-07T08:31:10;18.90;;;8.43;;
22030;SDS011;11179;52.106;21.024;2022-12-07T08:33:40;22.43;;;9.30;;
22030;SDS011;11179;52.106;21.024;2022-12-07T08:36:08;20.27;;;9.73;;
22030;SDS011;11179;52.106;21.024;2022-12-07T08:38:35;20.13;;;9.93;;
22030;SDS011;11179;52.106;21.024;2022-12-07T08:41:02;21.13;;;9.32;;
22030;SDS011;11179;52.106;21.024;2022-12-07T08:43:27;21.30;;;9.93;;
22030;SDS011;11179;52.106;21.024;2022-12-07T08:45:56;22.77;;;10.03;;
22030;SDS011;11179;52.106;21.024;2022-12-07T08:48:42;26.90;;;11.07;;
22030;SDS011;11179;52.106;21.024;2022-12-07T08:51:11;25.60;;;10.02;;
22030;SDS011;11179;52.106;21.024;2022-12-07T08:53:38;22.98;;;10.93;;
22030;SDS011;11179;52.106;21.024;2022-12-07T08:56:04;30.27;;;10.47;;
22030;SDS011;11179;52.106;21.024;2022-12-07T08:58:31;19.05;;;9.25;;
22030;SDS011;11179;52.106;21.024;2022-12-07T09:00:57;23.50;;;11.15;;
22030;SDS011;11179;52.106;21.024;2022-12-07T09:03:22;23.27;;;10.20;;
22030;SDS011;11179;52.106;21.024;2022-12-07T09:05:48;25.53;;;11.73;;
22030;SDS011;11179;52.106;21.024;2022-12-07T09:08:13;22.80;;;9.87;;
22030;SDS011;11179;52.106;21.024;2022-12-07T09:10:39;25.33;;;12.40;;
22030;SDS011;11179;52.106;21.024;2022-12-07T09:13:04;24.23;;;10.90;;
22030;SDS011;11179;52.106;21.024;2022-12-07T09:15:30;24.37;;;12.43;;
22030;SDS011;11179;52.106;21.024;2022-12-07T09:17:56;22.77;;;11.60;;
22030;SDS011;11179;52.106;21.024;2022-12-07T09:20:21;31.67;;;12.77;;
22030;SDS011;11179;52.106;21.024;2022-12-07T09:22:47;27.93;;;11.30;;
22030;SDS011;11179;52.106;21.024;2022-12-07T09:25:12;29.17;;;12.27;;
22030;SDS011;11179;52.106;21.024;2022-12-07T09:27:37;28.10;;;12.27;;
22030;SDS011;11179;52.106;21.024;2022-12-07T09:30:03;28.73;;;13.13;;
22030;SDS011;11179;52.106;21.024;2022-12-07T09:32:30;26.33;;;12.20;;
22030;SDS011;11179;52.106;21.024;2022-12-07T09:34:55;38.50;;;13.40;;
22030;SDS011;11179;52.106;21.024;2022-12-07T09:37:21;23.53;;;11.53;;
22030;SDS011;11179;52.106;21.024;2022-12-07T09:39:47;25.80;;;12.60;;
22030;SDS011;11179;52.106;21.024;2022-12-07T09:42:47;28.97;;;13.13;;
22030;SDS011;11179;52.106;21.024;2022-12-07T09:45:07;28.70;;;13.20;;
22030;SDS011;11179;52.106;21.024;2022-12-07T09:47:39;30.80;;;13.90;;
22030;SDS011;11179;52.106;21.024;2022-12-07T09:50:06;31.37;;;13.07;;
22030;SDS011;11179;52.106;21.024;2022-12-07T09:52:37;29.20;;;12.23;;
22030;SDS011;11179;52.106;21.024;2022-12-07T09:55:08;28.53;;;12.67;;
22030;SDS011;11179;52.106;21.024;2022-12-07T09:57:36;30.60;;;12.73;;
22030;SDS011;11179;52.106;21.024;2022-12-07T10:00:03;32.10;;;13.60;;
22030;SDS011;11179;52.106;21.024;2022-12-07T10:05:04;32.00;;;11.73;;
22030;SDS011;11179;52.106;21.024;2022-12-07T10:07:32;29.40;;;13.63;;
22030;SDS011;11179;52.106;21.024;2022-12-07T10:09:57;26.87;;;12.17;;
22030;SDS011;11179;52.106;21.024;2022-12-07T10:12:22;32.80;;;12.40;;
22030;SDS011;11179;52.106;21.024;2022-12-07T10:15:01;30.83;;;12.00;;
22030;SDS011;11179;52.106;21.024;2022-12-07T10:17:30;26.90;;;12.83;;
22030;SDS011;11179;52.106;21.024;2022-12-07T10:22:54;29.10;;;12.80;;
22030;SDS011;11179;52.106;21.024;2022-12-07T10:25:22;27.60;;;11.60;;
22030;SDS011;11179;52.106;21.024;2022-12-07T10:30:56;26.50;;;12.03;;
22030;SDS011;11179;52.106;21.024;2022-12-07T10:35:55;26.90;;;11.38;;
22030;SDS011;11179;52.106;21.024;2022-12-07T10:38:21;26.50;;;11.60;;
22030;SDS011;11179;52.106;21.024;2022-12-07T10:40:46;22.70;;;11.30;;
22030;SDS011;11179;52.106;21.024;2022-12-07T10:50:55;22.63;;;10.97;;
22030;SDS011;11179;52.106;21.024;2022-12-07T10:56:59;23.73;;;11.60;;
22030;SDS011;11179;52.106;21.024;2022-12-07T10:59:33;24.93;;;11.00;;
22030;SDS011;11179;52.106;21.024;2022-12-07T11:02:19;22.23;;;11.00;;
22030;SDS011;11179;52.106;21.024;2022-12-07T11:21:35;22.90;;;10.43;;
22030;SDS011;11179;52.106;21.024;2022-12-07T11:24:17;22.37;;;10.47;;
22030;SDS011;11179;52.106;21.024;2022-12-07T11:31:56;21.40;;;10.73;;
22030;SDS011;11179;52.106;21.024;2022-12-07T11:37:16;18.60;;;10.00;;
22030;SDS011;11179;52.106;21.024;2022-12-07T11:39:48;22.23;;;11.10;;
22030;SDS011;11179;52.106;21.024;2022-12-07T11:42:24;18.10;;;9.10;;
22030;SDS011;11179;52.106;21.024;2022-12-07T11:45:00;20.03;;;10.10;;
22030;SDS011;11179;52.106;21.024;2022-12-07T11:47:38;21.33;;;10.77;;
22030;SDS011;11179;52.106;21.024;2022-12-07T11:50:30;23.40;;;11.57;;
22030;SDS011;11179;52.106;21.024;2022-12-07T11:53:05;21.97;;;10.87;;
22030;SDS011;11179;52.106;21.024;2022-12-07T12:01:07;25.80;;;13.00;;
22030;SDS011;11179;52.106;21.024;2022-12-07T12:03:34;33.97;;;18.20;;
22030;SDS011;11179;52.106;21.024;2022-12-07T12:06:05;24.90;;;13.50;;
22030;SDS011;11179;52.106;21.024;2022-12-07T12:08:32;30.63;;;15.30;;
22030;SDS011;11179;52.106;21.024;2022-12-07T12:11:22;30.60;;;14.90;;
22030;SDS011;11179;52.106;21.024;2022-12-07T12:20:32;27.60;;;17.87;;
22030;SDS011;11179;52.106;21.024;2022-12-07T12:23:07;26.30;;;12.90;;
22030;SDS011;11179;52.106;21.024;2022-12-07T12:25:38;22.27;;;11.67;;
22030;SDS011;11179;52.106;21.024;2022-12-07T12:28:49;22.17;;;10.63;;
22030;SDS011;11179;52.106;21.024;2022-12-07T12:33:38;20.90;;;10.70;;
22030;SDS011;11179;52.106;21.024;2022-12-07T12:46:59;22.15;;;11.02;;
22030;SDS011;11179;52.106;21.024;2022-12-07T12:50:10;20.60;;;11.00;;
22030;SDS011;11179;52.106;21.024;2022-12-07T12:57:33;22.63;;;11.57;;
22030;SDS011;11179;52.106;21.024;2022-12-07T13:00:01;22.53;;;9.67;;
22030;SDS011;11179;52.106;21.024;2022-12-07T13:05:25;21.03;;;10.70;;
22030;SDS011;11179;52.106;21.024;2022-12-07T13:13:01;21.40;;;12.60;;
22030;SDS011;11179;52.106;21.024;2022-12-07T13:26:31;14.80;;;8.20;;
22030;SDS011;11179;52.106;21.024;2022-12-07T13:31:53;18.42;;;10.32;;
22030;SDS011;11179;52.106;21.024;2022-12-07T13:36:59;15.43;;;8.63;;
22030;SDS011;11179;52.106;21.024;2022-12-07T13:39:26;14.27;;;8.30;;
22030;SDS011;11179;52.106;21.024;2022-12-07T13:41:53;14.87;;;8.37;;
22030;SDS011;11179;52.106;21.024;2022-12-07T13:44:23;15.43;;;8.10;;
22030;SDS011;11179;52.106;21.024;2022-12-07T13:49:25;16.87;;;9.47;;
22030;SDS011;11179;52.106;21.024;2022-12-07T13:51:53;18.17;;;9.15;;
22030;SDS011;11179;52.106;21.024;2022-12-07T13:54:31;16.33;;;8.87;;
22030;SDS011;11179;52.106;21.024;2022-12-07T13:56:57;21.53;;;11.00;;
22030;SDS011;11179;52.106;21.024;2022-12-07T13:59:24;22.43;;;12.63;;
22030;SDS011;11179;52.106;21.024;2022-12-07T14:01:50;30.77;;;15.43;;
22030;SDS011;11179;52.106;21.024;2022-12-07T14:04:30;33.67;;;18.87;;
22030;SDS011;11179;52.106;21.024;2022-12-07T14:06:56;23.07;;;12.53;;
22030;SDS011;11179;52.106;21.024;2022-12-07T14:09:23;26.43;;;14.90;;
22030;SDS011;11179;52.106;21.024;2022-12-07T14:11:51;22.13;;;11.73;;
22030;SDS011;11179;52.106;21.024;2022-12-07T14:14:20;18.50;;;10.93;;
22030;SDS011;11179;52.106;21.024;2022-12-07T14:19:40;21.10;;;11.57;;
22030;SDS011;11179;52.106;21.024;2022-12-07T14:24:50;23.03;;;12.50;;
22030;SDS011;11179;52.106;21.024;2022-12-07T14:27:20;21.57;;;11.23;;
22030;SDS011;11179;52.106;21.024;2022-12-07T14:29:47;20.97;;;11.63;;
22030;SDS011;11179;52.106;21.024;2022-12-07T14:37:22;19.73;;;10.20;;
22030;SDS011;11179;52.106;21.024;2022-12-07T14:39:48;23.40;;;11.97;;
22030;SDS011;11179;52.106;21.024;2022-12-07T14:42:14;24.03;;;11.80;;
22030;SDS011;11179;52.106;21.024;2022-12-07T14:44:39;20.77;;;10.60;;
22030;SDS011;11179;52.106;21.024;2022-12-07T14:47:05;18.73;;;11.10;;
22030;SDS011;11179;52.106;21.024;2022-12-07T14:49:30;24.67;;;12.00;;
22030;SDS011;11179;52.106;21.024;2022-12-07T14:51:55;22.90;;;13.07;;
22030;SDS011;11179;52.106;21.024;2022-12-07T14:54:21;27.90;;;11.90;;
22030;SDS011;11179;52.106;21.024;2022-12-07T14:56:54;23.00;;;12.53;;
22030;SDS011;11179;52.106;21.024;2022-12-07T14:59:19;23.57;;;12.33;;
22030;SDS011;11179;52.106;21.024;2022-12-07T15:01:45;23.83;;;13.70;;
22030;SDS011;11179;52.106;21.024;2022-12-07T15:04:10;20.70;;;12.63;;
22030;SDS011;11179;52.106;21.024;2022-12-07T15:06:35;20.40;;;11.47;;
22030;SDS011;11179;52.106;21.024;2022-12-07T15:09:01;23.67;;;13.80;;
22030;SDS011;11179;52.106;21.024;2022-12-07T15:11:27;25.70;;;14.47;;
22030;SDS011;11179;52.106;21.024;2022-12-07T15:13:53;28.30;;;16.73;;
22030;SDS011;11179;52.106;21.024;2022-12-07T15:16:33;25.60;;;15.10;;
22030;SDS011;11179;52.106;21.024;2022-12-07T15:18:59;25.77;;;15.50;;
22030;SDS011;11179;52.106;21.024;2022-12-07T15:21:24;24.63;;;13.37;;
22030;SDS011;11179;52.106;21.024;2022-12-07T15:23:50;24.20;;;13.13;;
22030;SDS011;11179;52.106;21.024;2022-12-07T15:26:15;28.30;;;13.53;;
22030;SDS011;11179;52.106;21.024;2022-12-07T15:28:41;25.60;;;13.10;;
22030;SDS011;11179;52.106;21.024;2022-12-07T15:31:12;27.13;;;14.07;;
22030;SDS011;11179;52.106;21.024;2022-12-07T15:33:41;29.33;;;14.43;;
22030;SDS011;11179;52.106;21.024;2022-12-07T15:36:08;24.80;;;14.27;;
22030;SDS011;11179;52.106;21.024;2022-12-07T15:38:43;23.55;;;13.75;;
22030;SDS011;11179;52.106;21.024;2022-12-07T15:41:08;24.90;;;13.60;;
22030;SDS011;11179;52.106;21.024;2022-12-07T15:43:34;26.03;;;13.50;;
22030;SDS011;11179;52.106;21.024;2022-12-07T15:46:20;33.37;;;15.60;;
22030;SDS011;11179;52.106;21.024;2022-12-07T15:48:45;27.33;;;13.97;;
22030;SDS011;11179;52.106;21.024;2022-12-07T15:51:11;29.07;;;13.70;;
22030;SDS011;11179;52.106;21.024;2022-12-07T15:53:36;29.90;;;14.90;;
22030;SDS011;11179;52.106;21.024;2022-12-07T15:56:05;27.23;;;13.97;;
22030;SDS011;11179;52.106;21.024;2022-12-07T15:58:31;24.33;;;13.70;;
22030;SDS011;11179;52.106;21.024;2022-12-07T16:00:56;23.77;;;12.17;;
22030;SDS011;11179;52.106;21.024;2022-12-07T16:03:22;25.53;;;14.70;;
22030;SDS011;11179;52.106;21.024;2022-12-07T16:05:51;29.00;;;14.17;;
22030;SDS011;11179;52.106;21.024;2022-12-07T16:08:17;26.03;;;14.53;;
22030;SDS011;11179;52.106;21.024;2022-12-07T16:10:42;31.40;;;15.50;;
22030;SDS011;11179;52.106;21.024;2022-12-07T16:13:08;27.97;;;13.30;;
22030;SDS011;11179;52.106;21.024;2022-12-07T16:15:38;31.77;;;15.10;;
22030;SDS011;11179;52.106;21.024;2022-12-07T16:18:06;30.45;;;15.75;;
22030;SDS011;11179;52.106;21.024;2022-12-07T16:20:32;33.40;;;15.60;;
22030;SDS011;11179;52.106;21.024;2022-12-07T16:22:58;30.77;;;14.70;;
22030;SDS011;11179;52.106;21.024;2022-12-07T16:25:23;29.57;;;14.90;;
22030;SDS011;11179;52.106;21.024;2022-12-07T16:27:49;27.93;;;14.63;;
22030;SDS011;11179;52.106;21.024;2022-12-07T16:30:15;37.75;;;15.50;;
22030;SDS011;11179;52.106;21.024;2022-12-07T16:32:43;26.15;;;14.57;;
22030;SDS011;11179;52.106;21.024;2022-12-07T16:35:09;26.47;;;14.47;;
22030;SDS011;11179;52.106;21.024;2022-12-07T16:37:35;25.37;;;13.53;;
22030;SDS011;11179;52.106;21.024;2022-12-07T16:40:01;28.47;;;15.17;;
22030;SDS011;11179;52.106;21.024;2022-12-07T16:42:26;29.13;;;14.43;;
22030;SDS011;11179;52.106;21.024;2022-12-07T16:44:51;28.30;;;14.80;;
22030;SDS011;11179;52.106;21.024;2022-12-07T16:47:17;30.67;;;14.93;;